TAF KTPA
AMD KTPA 082106Z 0821/0924 24010KT P6SM SCT035 BKN250 FM090600 VRB03KT 3SM BR SCT025 SCT250 TEMPO 0909/0913 2SM BR OVC005 FM091500 13005KT P6SM SCT010 SCT250 FM091800 22007KT P6SM SCT024 BKN250=
METAR KTPA
KTPA 082053Z 19009KT 10SM FEW035 SCT060 SCT250 26/19 A2999 RMK AO2 SLP155 T02560194 56018 ?
KTPA 081953Z 18010KT 10SM SCT065 SCT080 BKN250 26/19 A3001 RMK AO2 SLP161 T02560189 ?
KTPA 081853Z 19011KT 10SM FEW150 SCT250 27/19 A3002 RMK AO2 SLP164 T02670189 ?
KTPA 081753Z 18012G18KT 10SM FEW030 SCT250 26/19 A3004 RMK AO2 SLP173 T02610189 10267 20194 58015 ?
KTPA 081653Z 18010KT 10SM FEW150 SCT250 26/17 A3007 RMK AO2 SLP183 T02560172 ?
WC KTPA
WS KTPA
WV KTPA